Terminal Aerodrome Forecast
Issued by NWS

Home | Current Version | Previous Version | Text Only | Print | Product List | Glossary On
Versions: 1 2 3 4 5 6 7 8 9 10 11 12 13 14 15 16 17 18 19 20 21 22 23 24
000
FTUS42 KTAE 281120
TAFDHN
TAF
KDHN 281120Z 2812/2912 04005KT P6SM SCT150 SCT250
     FM281500 12005KT P6SM SCT030 SCT150
     FM282100 VRB15G25KT 2SM TSRA BKN040CB
     FM290100 VRB03KT P6SM SCT040 BKN150=

USA.gov is the U.S. government's official web portal to all federal, state and local government web resources and services.